sensor_id;sensor_type;location;lat;lon;timestamp;P1;durP1;ratioP1;P2;durP2;ratioP2
43014;SDS011;28637;50.554;7.032;2023-07-20T00:01:26;4.37;;;2.20;;
43014;SDS011;28637;50.554;7.032;2023-07-20T00:06:27;3.07;;;2.10;;
43014;SDS011;28637;50.554;7.032;2023-07-20T00:11:27;4.90;;;2.50;;
43014;SDS011;28637;50.554;7.032;2023-07-20T00:16:28;4.77;;;2.40;;
43014;SDS011;28637;50.554;7.032;2023-07-20T00:21:29;2.77;;;2.07;;
43014;SDS011;28637;50.554;7.032;2023-07-20T00:26:30;4.13;;;2.23;;
43014;SDS011;28637;50.554;7.032;2023-07-20T00:31:31;8.30;;;2.43;;
43014;SDS011;28637;50.554;7.032;2023-07-20T00:36:32;9.30;;;2.33;;
43014;SDS011;28637;50.554;7.032;2023-07-20T00:41:33;7.20;;;2.83;;
43014;SDS011;28637;50.554;7.032;2023-07-20T00:46:33;6.40;;;2.40;;
43014;SDS011;28637;50.554;7.032;2023-07-20T00:51:35;4.30;;;2.20;;
43014;SDS011;28637;50.554;7.032;2023-07-20T00:56:36;4.80;;;2.17;;
43014;SDS011;28637;50.554;7.032;2023-07-20T01:01:37;3.90;;;2.20;;
43014;SDS011;28637;50.554;7.032;2023-07-20T01:12:06;5.13;;;2.55;;
43014;SDS011;28637;50.554;7.032;2023-07-20T01:17:12;5.15;;;2.38;;
43014;SDS011;28637;50.554;7.032;2023-07-20T01:28:03;3.72;;;2.47;;
43014;SDS011;28637;50.554;7.032;2023-07-20T01:33:25;4.15;;;2.35;;
43014;SDS011;28637;50.554;7.032;2023-07-20T01:43:28;6.90;;;2.50;;
43014;SDS011;28637;50.554;7.032;2023-07-20T01:48:29;3.27;;;2.30;;
43014;SDS011;28637;50.554;7.032;2023-07-20T01:53:29;3.43;;;2.20;;
43014;SDS011;28637;50.554;7.032;2023-07-20T01:58:30;8.43;;;2.57;;
43014;SDS011;28637;50.554;7.032;2023-07-20T02:03:31;3.37;;;2.30;;
43014;SDS011;28637;50.554;7.032;2023-07-20T02:08:32;3.92;;;2.25;;
43014;SDS011;28637;50.554;7.032;2023-07-20T02:13:32;4.43;;;2.20;;
43014;SDS011;28637;50.554;7.032;2023-07-20T02:18:33;4.83;;;2.60;;
43014;SDS011;28637;50.554;7.032;2023-07-20T02:23:35;3.83;;;2.30;;
43014;SDS011;28637;50.554;7.032;2023-07-20T02:28:36;2.70;;;2.10;;
43014;SDS011;28637;50.554;7.032;2023-07-20T02:33:36;5.33;;;2.03;;
43014;SDS011;28637;50.554;7.032;2023-07-20T02:38:37;4.60;;;2.50;;
43014;SDS011;28637;50.554;7.032;2023-07-20T02:43:38;4.40;;;2.00;;
43014;SDS011;28637;50.554;7.032;2023-07-20T02:48:38;4.80;;;2.30;;
43014;SDS011;28637;50.554;7.032;2023-07-20T02:53:39;3.00;;;2.10;;
43014;SDS011;28637;50.554;7.032;2023-07-20T02:58:40;3.77;;;2.00;;
43014;SDS011;28637;50.554;7.032;2023-07-20T03:03:45;5.45;;;2.20;;
43014;SDS011;28637;50.554;7.032;2023-07-20T03:08:47;5.70;;;2.15;;
43014;SDS011;28637;50.554;7.032;2023-07-20T03:13:53;4.65;;;2.35;;
43014;SDS011;28637;50.554;7.032;2023-07-20T03:18:53;4.15;;;2.65;;
43014;SDS011;28637;50.554;7.032;2023-07-20T03:23:54;4.17;;;2.30;;
43014;SDS011;28637;50.554;7.032;2023-07-20T03:28:55;3.27;;;2.30;;
43014;SDS011;28637;50.554;7.032;2023-07-20T03:33:56;6.07;;;2.20;;
43014;SDS011;28637;50.554;7.032;2023-07-20T03:38:57;5.00;;;2.20;;
43014;SDS011;28637;50.554;7.032;2023-07-20T03:43:58;3.80;;;2.20;;
43014;SDS011;28637;50.554;7.032;2023-07-20T03:48:58;5.37;;;2.47;;
43014;SDS011;28637;50.554;7.032;2023-07-20T03:54:00;3.42;;;2.25;;
43014;SDS011;28637;50.554;7.032;2023-07-20T03:59:01;10.17;;;2.40;;
43014;SDS011;28637;50.554;7.032;2023-07-20T04:04:02;4.60;;;2.27;;
43014;SDS011;28637;50.554;7.032;2023-07-20T04:09:07;3.13;;;2.08;;
43014;SDS011;28637;50.554;7.032;2023-07-20T04:14:07;5.57;;;2.20;;
43014;SDS011;28637;50.554;7.032;2023-07-20T04:19:08;6.60;;;2.40;;
43014;SDS011;28637;50.554;7.032;2023-07-20T04:24:09;4.17;;;2.57;;
43014;SDS011;28637;50.554;7.032;2023-07-20T04:29:09;6.47;;;2.40;;
43014;SDS011;28637;50.554;7.032;2023-07-20T04:34:10;7.00;;;2.50;;
43014;SDS011;28637;50.554;7.032;2023-07-20T04:39:11;7.23;;;2.80;;
43014;SDS011;28637;50.554;7.032;2023-07-20T04:44:13;4.53;;;2.78;;
43014;SDS011;28637;50.554;7.032;2023-07-20T04:54:15;5.05;;;2.80;;
43014;SDS011;28637;50.554;7.032;2023-07-20T04:59:17;7.80;;;2.67;;
43014;SDS011;28637;50.554;7.032;2023-07-20T05:04:18;7.97;;;3.00;;
43014;SDS011;28637;50.554;7.032;2023-07-20T05:09:19;9.67;;;3.10;;
43014;SDS011;28637;50.554;7.032;2023-07-20T05:14:19;5.27;;;2.93;;
43014;SDS011;28637;50.554;7.032;2023-07-20T05:19:20;4.30;;;2.60;;
43014;SDS011;28637;50.554;7.032;2023-07-20T05:24:21;6.97;;;2.70;;
43014;SDS011;28637;50.554;7.032;2023-07-20T05:29:22;4.20;;;2.70;;
43014;SDS011;28637;50.554;7.032;2023-07-20T05:34:22;7.47;;;3.10;;
43014;SDS011;28637;50.554;7.032;2023-07-20T05:39:23;3.43;;;2.50;;
43014;SDS011;28637;50.554;7.032;2023-07-20T05:44:24;4.87;;;3.60;;
43014;SDS011;28637;50.554;7.032;2023-07-20T05:49:25;4.63;;;2.70;;
43014;SDS011;28637;50.554;7.032;2023-07-20T05:54:26;6.47;;;3.40;;
43014;SDS011;28637;50.554;7.032;2023-07-20T05:59:27;6.20;;;3.33;;
43014;SDS011;28637;50.554;7.032;2023-07-20T06:04:31;6.22;;;3.67;;
43014;SDS011;28637;50.554;7.032;2023-07-20T06:09:32;6.23;;;3.97;;
43014;SDS011;28637;50.554;7.032;2023-07-20T06:14:33;8.47;;;3.77;;
43014;SDS011;28637;50.554;7.032;2023-07-20T06:19:34;8.40;;;4.05;;
43014;SDS011;28637;50.554;7.032;2023-07-20T06:24:35;5.68;;;3.38;;
43014;SDS011;28637;50.554;7.032;2023-07-20T06:29:35;5.13;;;3.10;;
43014;SDS011;28637;50.554;7.032;2023-07-20T06:34:36;5.60;;;2.93;;
43014;SDS011;28637;50.554;7.032;2023-07-20T06:39:38;6.53;;;2.75;;
43014;SDS011;28637;50.554;7.032;2023-07-20T06:44:39;5.93;;;3.03;;
43014;SDS011;28637;50.554;7.032;2023-07-20T06:49:39;4.18;;;2.85;;
43014;SDS011;28637;50.554;7.032;2023-07-20T06:54:41;5.57;;;3.08;;
43014;SDS011;28637;50.554;7.032;2023-07-20T06:59:41;4.77;;;2.53;;
43014;SDS011;28637;50.554;7.032;2023-07-20T07:04:42;4.40;;;2.67;;
43014;SDS011;28637;50.554;7.032;2023-07-20T07:09:43;4.03;;;2.40;;
43014;SDS011;28637;50.554;7.032;2023-07-20T07:14:43;4.57;;;2.70;;
43014;SDS011;28637;50.554;7.032;2023-07-20T07:19:44;4.20;;;2.57;;
43014;SDS011;28637;50.554;7.032;2023-07-20T07:24:45;3.28;;;2.30;;
43014;SDS011;28637;50.554;7.032;2023-07-20T07:29:46;2.95;;;2.50;;
43014;SDS011;28637;50.554;7.032;2023-07-20T07:34:48;4.43;;;3.00;;
43014;SDS011;28637;50.554;7.032;2023-07-20T07:39:49;4.03;;;2.50;;
43014;SDS011;28637;50.554;7.032;2023-07-20T07:44:49;3.13;;;2.83;;
43014;SDS011;28637;50.554;7.032;2023-07-20T07:49:50;4.55;;;2.70;;
43014;SDS011;28637;50.554;7.032;2023-07-20T07:54:51;4.07;;;2.60;;
43014;SDS011;28637;50.554;7.032;2023-07-20T07:59:52;3.97;;;2.23;;
43014;SDS011;28637;50.554;7.032;2023-07-20T08:04:52;5.37;;;2.63;;
43014;SDS011;28637;50.554;7.032;2023-07-20T08:09:53;6.37;;;2.63;;
43014;SDS011;28637;50.554;7.032;2023-07-20T08:14:54;3.73;;;2.63;;
43014;SDS011;28637;50.554;7.032;2023-07-20T08:19:54;5.63;;;2.30;;
43014;SDS011;28637;50.554;7.032;2023-07-20T08:24:55;3.90;;;2.43;;
43014;SDS011;28637;50.554;7.032;2023-07-20T08:29:56;3.47;;;2.00;;
43014;SDS011;28637;50.554;7.032;2023-07-20T08:34:57;4.35;;;1.95;;
43014;SDS011;28637;50.554;7.032;2023-07-20T08:39:57;3.60;;;1.70;;
43014;SDS011;28637;50.554;7.032;2023-07-20T08:44:58;3.00;;;1.60;;
43014;SDS011;28637;50.554;7.032;2023-07-20T08:50:00;2.40;;;1.77;;
43014;SDS011;28637;50.554;7.032;2023-07-20T08:55:02;2.45;;;1.85;;
43014;SDS011;28637;50.554;7.032;2023-07-20T09:00:04;2.50;;;1.70;;
43014;SDS011;28637;50.554;7.032;2023-07-20T09:05:07;2.05;;;1.70;;
43014;SDS011;28637;50.554;7.032;2023-07-20T09:10:09;2.85;;;1.50;;
43014;SDS011;28637;50.554;7.032;2023-07-20T09:15:11;2.47;;;1.60;;
43014;SDS011;28637;50.554;7.032;2023-07-20T09:20:14;1.83;;;1.50;;
43014;SDS011;28637;50.554;7.032;2023-07-20T09:25:16;2.60;;;1.40;;
43014;SDS011;28637;50.554;7.032;2023-07-20T09:30:20;2.08;;;1.60;;
43014;SDS011;28637;50.554;7.032;2023-07-20T09:35:25;2.20;;;1.50;;
43014;SDS011;28637;50.554;7.032;2023-07-20T09:40:26;1.92;;;1.30;;
43014;SDS011;28637;50.554;7.032;2023-07-20T09:45:49;2.15;;;1.60;;
43014;SDS011;28637;50.554;7.032;2023-07-20T09:50:49;2.78;;;1.60;;
43014;SDS011;28637;50.554;7.032;2023-07-20T09:55:51;2.08;;;1.50;;
43014;SDS011;28637;50.554;7.032;2023-07-20T10:00:54;1.60;;;1.45;;
43014;SDS011;28637;50.554;7.032;2023-07-20T10:06:02;1.73;;;1.50;;
43014;SDS011;28637;50.554;7.032;2023-07-20T10:11:07;1.38;;;1.27;;
43014;SDS011;28637;50.554;7.032;2023-07-20T10:16:11;1.70;;;1.30;;
43014;SDS011;28637;50.554;7.032;2023-07-20T10:21:20;1.98;;;1.40;;
43014;SDS011;28637;50.554;7.032;2023-07-20T10:26:25;1.85;;;1.50;;
43014;SDS011;28637;50.554;7.032;2023-07-20T10:31:26;2.60;;;1.52;;
43014;SDS011;28637;50.554;7.032;2023-07-20T10:36:28;2.00;;;1.40;;
43014;SDS011;28637;50.554;7.032;2023-07-20T10:41:34;3.42;;;1.50;;
43014;SDS011;28637;50.554;7.032;2023-07-20T10:51:40;1.83;;;1.30;;
43014;SDS011;28637;50.554;7.032;2023-07-20T10:56:48;2.85;;;1.40;;
43014;SDS011;28637;50.554;7.032;2023-07-20T11:01:50;2.53;;;1.30;;
43014;SDS011;28637;50.554;7.032;2023-07-20T11:07:03;1.88;;;1.40;;
43014;SDS011;28637;50.554;7.032;2023-07-20T11:12:10;1.77;;;1.30;;
43014;SDS011;28637;50.554;7.032;2023-07-20T11:17:14;2.22;;;1.50;;
43014;SDS011;28637;50.554;7.032;2023-07-20T11:22:16;1.83;;;1.42;;
43014;SDS011;28637;50.554;7.032;2023-07-20T11:27:17;2.00;;;1.48;;
43014;SDS011;28637;50.554;7.032;2023-07-20T11:32:22;1.77;;;1.27;;
43014;SDS011;28637;50.554;7.032;2023-07-20T11:37:24;1.77;;;1.40;;
43014;SDS011;28637;50.554;7.032;2023-07-20T11:42:24;1.55;;;1.45;;
43014;SDS011;28637;50.554;7.032;2023-07-20T11:47:28;2.70;;;1.35;;
43014;SDS011;28637;50.554;7.032;2023-07-20T11:52:29;3.58;;;1.48;;
43014;SDS011;28637;50.554;7.032;2023-07-20T11:57:31;1.83;;;1.40;;
43014;SDS011;28637;50.554;7.032;2023-07-20T12:02:32;3.42;;;1.40;;
43014;SDS011;28637;50.554;7.032;2023-07-20T12:07:34;5.05;;;1.50;;
43014;SDS011;28637;50.554;7.032;2023-07-20T12:12:40;4.63;;;1.42;;
43014;SDS011;28637;50.554;7.032;2023-07-20T12:22:55;1.70;;;1.30;;
43014;SDS011;28637;50.554;7.032;2023-07-20T12:28:06;1.30;;;1.02;;
43014;SDS011;28637;50.554;7.032;2023-07-20T12:33:09;1.25;;;1.15;;
43014;SDS011;28637;50.554;7.032;2023-07-20T12:38:11;1.40;;;1.30;;
43014;SDS011;28637;50.554;7.032;2023-07-20T12:43:12;3.10;;;1.50;;
43014;SDS011;28637;50.554;7.032;2023-07-20T12:48:13;2.53;;;1.40;;
43014;SDS011;28637;50.554;7.032;2023-07-20T12:53:14;1.65;;;1.20;;
43014;SDS011;28637;50.554;7.032;2023-07-20T13:03:15;2.50;;;1.27;;
43014;SDS011;28637;50.554;7.032;2023-07-20T13:08:18;1.90;;;1.60;;
43014;SDS011;28637;50.554;7.032;2023-07-20T13:18:20;1.50;;;1.33;;
43014;SDS011;28637;50.554;7.032;2023-07-20T13:23:21;1.27;;;1.20;;
43014;SDS011;28637;50.554;7.032;2023-07-20T13:33:22;1.80;;;1.20;;
43014;SDS011;28637;50.554;7.032;2023-07-20T13:38:23;1.63;;;1.10;;
43014;SDS011;28637;50.554;7.032;2023-07-20T13:43:24;1.42;;;1.33;;
43014;SDS011;28637;50.554;7.032;2023-07-20T13:48:25;1.60;;;1.50;;
43014;SDS011;28637;50.554;7.032;2023-07-20T13:53:27;1.75;;;1.30;;
43014;SDS011;28637;50.554;7.032;2023-07-20T14:03:28;1.10;;;1.10;;
43014;SDS011;28637;50.554;7.032;2023-07-20T14:13:30;2.33;;;1.30;;
43014;SDS011;28637;50.554;7.032;2023-07-20T14:23:31;6.07;;;1.20;;
43014;SDS011;28637;50.554;7.032;2023-07-20T14:33:32;1.87;;;1.10;;
43014;SDS011;28637;50.554;7.032;2023-07-20T14:38:34;2.75;;;1.20;;
43014;SDS011;28637;50.554;7.032;2023-07-20T14:43:35;1.20;;;1.10;;
43014;SDS011;28637;50.554;7.032;2023-07-20T14:53:37;1.20;;;1.10;;
43014;SDS011;28637;50.554;7.032;2023-07-20T15:03:38;1.13;;;0.97;;
43014;SDS011;28637;50.554;7.032;2023-07-20T15:08:38;3.13;;;1.10;;
43014;SDS011;28637;50.554;7.032;2023-07-20T15:13:39;3.90;;;1.30;;
43014;SDS011;28637;50.554;7.032;2023-07-20T15:18:42;1.55;;;1.20;;
43014;SDS011;28637;50.554;7.032;2023-07-20T15:28:44;2.77;;;1.23;;
43014;SDS011;28637;50.554;7.032;2023-07-20T15:38:45;1.65;;;1.33;;
43014;SDS011;28637;50.554;7.032;2023-07-20T15:43:46;1.48;;;1.13;;
43014;SDS011;28637;50.554;7.032;2023-07-20T15:48:48;3.00;;;1.15;;
43014;SDS011;28637;50.554;7.032;2023-07-20T15:53:50;1.40;;;1.20;;
43014;SDS011;28637;50.554;7.032;2023-07-20T15:58:51;2.10;;;1.30;;
43014;SDS011;28637;50.554;7.032;2023-07-20T16:03:52;2.85;;;1.20;;
43014;SDS011;28637;50.554;7.032;2023-07-20T16:08:54;1.65;;;1.20;;
43014;SDS011;28637;50.554;7.032;2023-07-20T16:13:55;2.90;;;1.20;;
43014;SDS011;28637;50.554;7.032;2023-07-20T16:18:56;1.40;;;1.30;;
43014;SDS011;28637;50.554;7.032;2023-07-20T16:23:56;1.35;;;1.20;;
43014;SDS011;28637;50.554;7.032;2023-07-20T16:28:57;2.97;;;1.02;;
43014;SDS011;28637;50.554;7.032;2023-07-20T16:33:58;2.05;;;1.10;;
43014;SDS011;28637;50.554;7.032;2023-07-20T16:38:59;1.40;;;1.30;;
43014;SDS011;28637;50.554;7.032;2023-07-20T16:43:59;1.95;;;1.38;;
43014;SDS011;28637;50.554;7.032;2023-07-20T16:49:00;2.22;;;1.20;;
43014;SDS011;28637;50.554;7.032;2023-07-20T16:54:09;1.42;;;1.20;;
43014;SDS011;28637;50.554;7.032;2023-07-20T16:59:10;1.40;;;1.05;;
43014;SDS011;28637;50.554;7.032;2023-07-20T17:09:15;2.28;;;1.10;;
43014;SDS011;28637;50.554;7.032;2023-07-20T17:14:16;2.50;;;1.10;;
43014;SDS011;28637;50.554;7.032;2023-07-20T17:24:17;3.73;;;1.40;;
43014;SDS011;28637;50.554;7.032;2023-07-20T17:29:18;3.80;;;1.27;;
43014;SDS011;28637;50.554;7.032;2023-07-20T17:39:20;1.47;;;1.20;;
43014;SDS011;28637;50.554;7.032;2023-07-20T17:49:21;1.33;;;1.23;;
43014;SDS011;28637;50.554;7.032;2023-07-20T17:54:22;5.90;;;1.17;;
43014;SDS011;28637;50.554;7.032;2023-07-20T17:59:23;1.35;;;1.20;;
43014;SDS011;28637;50.554;7.032;2023-07-20T18:04:24;1.00;;;1.00;;
43014;SDS011;28637;50.554;7.032;2023-07-20T18:09:24;1.65;;;1.23;;
43014;SDS011;28637;50.554;7.032;2023-07-20T18:14:25;2.00;;;1.30;;
43014;SDS011;28637;50.554;7.032;2023-07-20T18:19:25;1.77;;;1.38;;
43014;SDS011;28637;50.554;7.032;2023-07-20T18:24:26;3.33;;;1.50;;
43014;SDS011;28637;50.554;7.032;2023-07-20T18:29:27;1.60;;;1.40;;
43014;SDS011;28637;50.554;7.032;2023-07-20T18:34:27;2.10;;;1.40;;
43014;SDS011;28637;50.554;7.032;2023-07-20T18:39:29;3.08;;;1.40;;
43014;SDS011;28637;50.554;7.032;2023-07-20T18:44:30;2.38;;;1.40;;
43014;SDS011;28637;50.554;7.032;2023-07-20T18:49:31;2.35;;;1.30;;
43014;SDS011;28637;50.554;7.032;2023-07-20T18:54:32;9.77;;;1.45;;
43014;SDS011;28637;50.554;7.032;2023-07-20T18:59:33;4.78;;;1.45;;
43014;SDS011;28637;50.554;7.032;2023-07-20T19:04:34;4.45;;;1.70;;
43014;SDS011;28637;50.554;7.032;2023-07-20T19:09:35;6.95;;;1.67;;
43014;SDS011;28637;50.554;7.032;2023-07-20T19:14:36;8.67;;;1.70;;
43014;SDS011;28637;50.554;7.032;2023-07-20T19:19:37;4.28;;;1.65;;
43014;SDS011;28637;50.554;7.032;2023-07-20T19:24:38;1.65;;;1.52;;
43014;SDS011;28637;50.554;7.032;2023-07-20T19:29:38;2.93;;;1.50;;
43014;SDS011;28637;50.554;7.032;2023-07-20T19:34:39;4.07;;;1.47;;
43014;SDS011;28637;50.554;7.032;2023-07-20T19:39:40;3.50;;;1.45;;
43014;SDS011;28637;50.554;7.032;2023-07-20T19:44:41;2.08;;;1.50;;
43014;SDS011;28637;50.554;7.032;2023-07-20T19:49:41;3.63;;;1.40;;
43014;SDS011;28637;50.554;7.032;2023-07-20T19:54:42;1.87;;;1.40;;
43014;SDS011;28637;50.554;7.032;2023-07-20T19:59:43;2.87;;;1.50;;
43014;SDS011;28637;50.554;7.032;2023-07-20T20:04:43;4.07;;;1.50;;
43014;SDS011;28637;50.554;7.032;2023-07-20T20:09:44;2.30;;;1.70;;
43014;SDS011;28637;50.554;7.032;2023-07-20T20:14:45;2.57;;;1.70;;
43014;SDS011;28637;50.554;7.032;2023-07-20T20:19:46;2.37;;;1.60;;
43014;SDS011;28637;50.554;7.032;2023-07-20T20:24:49;6.90;;;1.67;;
43014;SDS011;28637;50.554;7.032;2023-07-20T20:29:50;3.10;;;1.60;;
43014;SDS011;28637;50.554;7.032;2023-07-20T20:34:52;2.58;;;1.60;;
43014;SDS011;28637;50.554;7.032;2023-07-20T20:39:53;2.03;;;1.70;;
43014;SDS011;28637;50.554;7.032;2023-07-20T20:44:54;1.50;;;1.40;;
43014;SDS011;28637;50.554;7.032;2023-07-20T20:49:55;3.72;;;1.60;;
43014;SDS011;28637;50.554;7.032;2023-07-20T20:55:01;1.70;;;1.52;;
43014;SDS011;28637;50.554;7.032;2023-07-20T21:00:03;2.17;;;1.73;;
43014;SDS011;28637;50.554;7.032;2023-07-20T21:05:07;2.55;;;1.50;;
43014;SDS011;28637;50.554;7.032;2023-07-20T21:15:09;2.22;;;1.63;;
43014;SDS011;28637;50.554;7.032;2023-07-20T21:20:10;3.40;;;1.63;;
43014;SDS011;28637;50.554;7.032;2023-07-20T21:25:11;6.00;;;1.67;;
43014;SDS011;28637;50.554;7.032;2023-07-20T21:30:12;3.43;;;1.67;;
43014;SDS011;28637;50.554;7.032;2023-07-20T21:35:12;4.33;;;1.80;;
43014;SDS011;28637;50.554;7.032;2023-07-20T21:40:13;6.63;;;2.10;;
43014;SDS011;28637;50.554;7.032;2023-07-20T21:45:14;2.60;;;2.13;;
43014;SDS011;28637;50.554;7.032;2023-07-20T21:50:15;4.37;;;2.70;;
43014;SDS011;28637;50.554;7.032;2023-07-20T21:55:16;3.40;;;3.03;;
43014;SDS011;28637;50.554;7.032;2023-07-20T22:00:17;4.72;;;3.30;;
43014;SDS011;28637;50.554;7.032;2023-07-20T22:05:19;4.28;;;3.60;;
43014;SDS011;28637;50.554;7.032;2023-07-20T22:10:21;3.70;;;3.40;;
43014;SDS011;28637;50.554;7.032;2023-07-20T22:15:22;5.43;;;3.50;;
43014;SDS011;28637;50.554;7.032;2023-07-20T22:20:22;4.67;;;3.27;;
43014;SDS011;28637;50.554;7.032;2023-07-20T22:25:24;5.80;;;3.53;;
43014;SDS011;28637;50.554;7.032;2023-07-20T22:30:25;3.80;;;3.40;;
43014;SDS011;28637;50.554;7.032;2023-07-20T22:35:25;3.57;;;3.27;;
43014;SDS011;28637;50.554;7.032;2023-07-20T22:40:26;4.97;;;3.53;;
43014;SDS011;28637;50.554;7.032;2023-07-20T22:45:27;4.77;;;3.50;;
43014;SDS011;28637;50.554;7.032;2023-07-20T22:50:28;3.45;;;3.05;;
43014;SDS011;28637;50.554;7.032;2023-07-20T22:55:28;3.73;;;3.10;;
43014;SDS011;28637;50.554;7.032;2023-07-20T23:00:30;3.75;;;3.40;;
43014;SDS011;28637;50.554;7.032;2023-07-20T23:05:31;4.50;;;3.92;;
43014;SDS011;28637;50.554;7.032;2023-07-20T23:10:31;4.33;;;3.77;;
43014;SDS011;28637;50.554;7.032;2023-07-20T23:15:32;5.60;;;3.90;;
43014;SDS011;28637;50.554;7.032;2023-07-20T23:20:35;5.75;;;3.67;;
43014;SDS011;28637;50.554;7.032;2023-07-20T23:25:36;4.10;;;3.70;;
43014;SDS011;28637;50.554;7.032;2023-07-20T23:30:36;4.27;;;3.87;;
43014;SDS011;28637;50.554;7.032;2023-07-20T23:35:37;5.53;;;4.30;;
43014;SDS011;28637;50.554;7.032;2023-07-20T23:40:41;6.60;;;4.97;;
43014;SDS011;28637;50.554;7.032;2023-07-20T23:45:41;5.83;;;4.30;;
43014;SDS011;28637;50.554;7.032;2023-07-20T23:50:42;4.87;;;4.20;;
43014;SDS011;28637;50.554;7.032;2023-07-20T23:55:43;5.20;;;4.70;;
